sensor_id;sensor_type;location;lat;lon;timestamp;pressure;altitude;pressure_sealevel;temperature;humidity
45074;BME280;31570;51.688;5.860;2023-03-17T00:01:44;100709.28;;;19.55;43.15
45074;BME280;31570;51.688;5.860;2023-03-17T00:04:20;100718.09;;;19.58;43.20
45074;BME280;31570;51.688;5.860;2023-03-17T00:06:48;100714.16;;;19.52;43.23
45074;BME280;31570;51.688;5.860;2023-03-17T00:09:16;100722.13;;;19.53;43.35
45074;BME280;31570;51.688;5.860;2023-03-17T00:11:44;100725.13;;;19.50;43.27
45074;BME280;31570;51.688;5.860;2023-03-17T00:14:11;100729.53;;;19.51;43.37
45074;BME280;31570;51.688;5.860;2023-03-17T00:16:43;100730.97;;;19.55;43.24
45074;BME280;31570;51.688;5.860;2023-03-17T00:19:14;100729.78;;;19.58;43.17
45074;BME280;31570;51.688;5.860;2023-03-17T00:21:42;100734.38;;;19.58;43.11
45074;BME280;31570;51.688;5.860;2023-03-17T00:24:11;100737.06;;;19.58;43.15
45074;BME280;31570;51.688;5.860;2023-03-17T00:26:41;100734.38;;;19.58;43.04
45074;BME280;31570;51.688;5.860;2023-03-17T00:29:08;100737.94;;;19.58;43.06
45074;BME280;31570;51.688;5.860;2023-03-17T00:31:35;100732.66;;;19.57;43.03
45074;BME280;31570;51.688;5.860;2023-03-17T00:34:03;100722.41;;;19.50;43.12
45074;BME280;31570;51.688;5.860;2023-03-17T00:36:32;100714.16;;;19.52;43.10
45074;BME280;31570;51.688;5.860;2023-03-17T00:39:01;100719.41;;;19.53;43.24
45074;BME280;31570;51.688;5.860;2023-03-17T00:41:28;100705.56;;;19.57;43.08
45074;BME280;31570;51.688;5.860;2023-03-17T00:43:55;100704.13;;;19.62;42.81
45074;BME280;31570;51.688;5.860;2023-03-17T00:46:28;100697.97;;;19.60;42.79
45074;BME280;31570;51.688;5.860;2023-03-17T00:49:21;100693.16;;;19.54;42.87
45074;BME280;31570;51.688;5.860;2023-03-17T00:51:49;100694.00;;;19.54;42.78
45074;BME280;31570;51.688;5.860;2023-03-17T00:54:18;100689.59;;;19.53;43.22
45074;BME280;31570;51.688;5.860;2023-03-17T00:56:46;100692.31;;;19.53;42.82
45074;BME280;31570;51.688;5.860;2023-03-17T00:59:26;100688.19;;;19.49;42.95
45074;BME280;31570;51.688;5.860;2023-03-17T01:01:53;100693.31;;;19.52;42.93
45074;BME280;31570;51.688;5.860;2023-03-17T01:04:21;100683.16;;;19.54;42.76
45074;BME280;31570;51.688;5.860;2023-03-17T01:06:48;100694.16;;;19.53;42.92
45074;BME280;31570;51.688;5.860;2023-03-17T01:09:17;100686.03;;;19.53;42.94
45074;BME280;31570;51.688;5.860;2023-03-17T01:11:45;100689.59;;;19.53;42.68
45074;BME280;31570;51.688;5.860;2023-03-17T01:14:14;100669.78;;;19.53;42.90
45074;BME280;31570;51.688;5.860;2023-03-17T01:16:41;100680.75;;;19.51;42.77
45074;BME280;31570;51.688;5.860;2023-03-17T01:19:09;100677.66;;;19.46;42.88
45074;BME280;31570;51.688;5.860;2023-03-17T01:21:36;100676.34;;;19.50;42.98
45074;BME280;31570;51.688;5.860;2023-03-17T01:24:03;100667.91;;;19.53;42.98
45074;BME280;31570;51.688;5.860;2023-03-17T01:26:30;100680.44;;;19.54;42.88
45074;BME280;31570;51.688;5.860;2023-03-17T01:28:58;100688.03;;;19.51;42.96
45074;BME280;31570;51.688;5.860;2023-03-17T01:31:25;100683.78;;;19.48;42.77
45074;BME280;31570;51.688;5.860;2023-03-17T01:33:51;100679.91;;;19.51;42.57
45074;BME280;31570;51.688;5.860;2023-03-17T01:36:18;100665.97;;;19.46;42.82
45074;BME280;31570;51.688;5.860;2023-03-17T01:38:46;100665.41;;;19.42;43.15
45074;BME280;31570;51.688;5.860;2023-03-17T01:41:13;100670.53;;;19.45;42.89
45074;BME280;31570;51.688;5.860;2023-03-17T01:43:40;100668.50;;;19.47;42.66
45074;BME280;31570;51.688;5.860;2023-03-17T01:49:27;100667.09;;;19.43;42.80
45074;BME280;31570;51.688;5.860;2023-03-17T01:54:36;100654.03;;;19.57;42.56
45074;BME280;31570;51.688;5.860;2023-03-17T01:57:18;100654.75;;;19.59;42.71
45074;BME280;31570;51.688;5.860;2023-03-17T01:59:52;100657.88;;;19.64;42.55
45074;BME280;31570;51.688;5.860;2023-03-17T02:02:24;100644.97;;;19.75;42.27
45074;BME280;31570;51.688;5.860;2023-03-17T02:04:54;100648.84;;;19.73;42.29
45074;BME280;31570;51.688;5.860;2023-03-17T02:07:22;100648.53;;;19.76;42.28
45074;BME280;31570;51.688;5.860;2023-03-17T02:09:49;100637.28;;;19.71;42.29
45074;BME280;31570;51.688;5.860;2023-03-17T02:12:20;100637.53;;;19.77;42.23
45074;BME280;31570;51.688;5.860;2023-03-17T02:14:48;100637.38;;;19.79;42.02
45074;BME280;31570;51.688;5.860;2023-03-17T02:17:14;100640.00;;;19.71;42.11
45074;BME280;31570;51.688;5.860;2023-03-17T02:19:41;100635.13;;;19.74;42.09
45074;BME280;31570;51.688;5.860;2023-03-17T02:22:08;100636.13;;;19.73;42.44
45074;BME280;31570;51.688;5.860;2023-03-17T02:24:44;100633.84;;;19.78;42.07
45074;BME280;31570;51.688;5.860;2023-03-17T02:27:21;100634.81;;;19.77;41.97
45074;BME280;31570;51.688;5.860;2023-03-17T02:29:49;100636.97;;;19.74;42.19
45074;BME280;31570;51.688;5.860;2023-03-17T02:32:18;100638.31;;;19.70;42.16
45074;BME280;31570;51.688;5.860;2023-03-17T02:34:46;100632.41;;;19.74;42.33
45074;BME280;31570;51.688;5.860;2023-03-17T02:37:14;100635.66;;;19.78;42.21
45074;BME280;31570;51.688;5.860;2023-03-17T02:39:41;100621.41;;;19.76;42.07
45074;BME280;31570;51.688;5.860;2023-03-17T02:42:08;100623.13;;;19.77;42.00
45074;BME280;31570;51.688;5.860;2023-03-17T02:44:35;100621.88;;;19.71;42.28
45074;BME280;31570;51.688;5.860;2023-03-17T02:47:01;100628.53;;;19.77;42.12
45074;BME280;31570;51.688;5.860;2023-03-17T02:49:29;100623.13;;;19.77;42.03
45074;BME280;31570;51.688;5.860;2023-03-17T02:51:56;100617.69;;;19.77;41.97
45074;BME280;31570;51.688;5.860;2023-03-17T02:54:23;100614.69;;;19.80;41.83
45074;BME280;31570;51.688;5.860;2023-03-17T02:56:49;100620.09;;;19.80;41.89
45074;BME280;31570;51.688;5.860;2023-03-17T02:59:16;100615.81;;;19.77;42.00
45074;BME280;31570;51.688;5.860;2023-03-17T03:01:42;100619.38;;;19.78;41.93
45074;BME280;31570;51.688;5.860;2023-03-17T03:04:09;100615.81;;;19.77;42.12
45074;BME280;31570;51.688;5.860;2023-03-17T03:06:35;100621.41;;;19.76;41.84
45074;BME280;31570;51.688;5.860;2023-03-17T03:09:02;100614.44;;;19.73;41.98
45074;BME280;31570;51.688;5.860;2023-03-17T03:11:29;100594.59;;;19.73;42.07
45074;BME280;31570;51.688;5.860;2023-03-17T03:13:56;100606.13;;;19.75;42.15
45074;BME280;31570;51.688;5.860;2023-03-17T03:16:22;100611.91;;;19.72;42.00
45074;BME280;31570;51.688;5.860;2023-03-17T03:18:49;100618.84;;;19.74;42.08
45074;BME280;31570;51.688;5.860;2023-03-17T03:21:15;100615.59;;;19.71;41.90
45074;BME280;31570;51.688;5.860;2023-03-17T03:23:42;100617.94;;;19.66;42.11
45074;BME280;31570;51.688;5.860;2023-03-17T03:26:08;100606.63;;;19.61;42.05
45074;BME280;31570;51.688;5.860;2023-03-17T03:28:35;100602.81;;;19.63;42.32
45074;BME280;31570;51.688;5.860;2023-03-17T03:31:02;100603.06;;;19.70;42.11
45074;BME280;31570;51.688;5.860;2023-03-17T03:33:29;100603.91;;;19.70;41.96
45074;BME280;31570;51.688;5.860;2023-03-17T03:35:55;100610.13;;;19.53;42.30
45074;BME280;31570;51.688;5.860;2023-03-17T03:38:22;100609.97;;;19.54;42.39
45074;BME280;31570;51.688;5.860;2023-03-17T03:40:48;100610.50;;;19.58;42.23
45074;BME280;31570;51.688;5.860;2023-03-17T03:43:15;100603.66;;;19.64;42.33
45074;BME280;31570;51.688;5.860;2023-03-17T03:45:49;100605.91;;;19.68;42.01
45074;BME280;31570;51.688;5.860;2023-03-17T03:48:16;100605.75;;;19.70;42.02
45074;BME280;31570;51.688;5.860;2023-03-17T03:50:43;100611.31;;;19.68;42.19
45074;BME280;31570;51.688;5.860;2023-03-17T03:53:09;100626.97;;;19.74;41.82
45074;BME280;31570;51.688;5.860;2023-03-17T03:55:36;100619.69;;;19.75;41.89
45074;BME280;31570;51.688;5.860;2023-03-17T03:58:02;100610.16;;;19.71;41.95
45074;BME280;31570;51.688;5.860;2023-03-17T04:00:29;100630.00;;;19.71;41.68
45074;BME280;31570;51.688;5.860;2023-03-17T04:02:56;100642.72;;;19.71;42.05
45074;BME280;31570;51.688;5.860;2023-03-17T04:05:22;100629.31;;;19.69;42.05
45074;BME280;31570;51.688;5.860;2023-03-17T04:07:49;100631.19;;;19.69;41.90
45074;BME280;31570;51.688;5.860;2023-03-17T04:10:16;100634.44;;;19.72;41.89
45074;BME280;31570;51.688;5.860;2023-03-17T04:12:42;100638.59;;;19.67;41.71
45074;BME280;31570;51.688;5.860;2023-03-17T04:15:10;100638.13;;;19.71;41.97
45074;BME280;31570;51.688;5.860;2023-03-17T04:17:39;100635.63;;;19.60;41.95
45074;BME280;31570;51.688;5.860;2023-03-17T04:20:07;100642.91;;;19.60;42.15
45074;BME280;31570;51.688;5.860;2023-03-17T04:22:34;100639.63;;;19.66;42.00
45074;BME280;31570;51.688;5.860;2023-03-17T04:25:00;100632.63;;;19.63;41.87
45074;BME280;31570;51.688;5.860;2023-03-17T04:27:27;100633.00;;;19.68;41.94
45074;BME280;31570;51.688;5.860;2023-03-17T04:29:53;100632.47;;;19.65;41.77
45074;BME280;31570;51.688;5.860;2023-03-17T04:32:20;100633.19;;;19.67;41.77
45074;BME280;31570;51.688;5.860;2023-03-17T04:34:47;100621.31;;;19.68;41.82
45074;BME280;31570;51.688;5.860;2023-03-17T04:37:13;100622.03;;;19.70;41.98
45074;BME280;31570;51.688;5.860;2023-03-17T04:39:40;100632.16;;;19.68;41.87
45074;BME280;31570;51.688;5.860;2023-03-17T04:42:07;100630.78;;;19.64;42.02
45074;BME280;31570;51.688;5.860;2023-03-17T04:44:34;100633.75;;;19.61;42.32
45074;BME280;31570;51.688;5.860;2023-03-17T04:47:00;100629.34;;;19.60;42.09
45074;BME280;31570;51.688;5.860;2023-03-17T04:49:27;100634.78;;;19.60;42.11
45074;BME280;31570;51.688;5.860;2023-03-17T04:51:54;100639.09;;;19.52;42.21
45074;BME280;31570;51.688;5.860;2023-03-17T04:54:21;100652.47;;;19.64;42.02
45074;BME280;31570;51.688;5.860;2023-03-17T04:56:47;100644.06;;;19.57;42.03
45074;BME280;31570;51.688;5.860;2023-03-17T04:59:14;100645.63;;;19.60;41.99
45074;BME280;31570;51.688;5.860;2023-03-17T05:01:41;100648.44;;;19.68;41.81
45074;BME280;31570;51.688;5.860;2023-03-17T05:04:08;100641.75;;;19.62;41.96
45074;BME280;31570;51.688;5.860;2023-03-17T05:06:38;100636.34;;;19.62;42.07
45074;BME280;31570;51.688;5.860;2023-03-17T05:09:04;100634.78;;;19.60;41.92
45074;BME280;31570;51.688;5.860;2023-03-17T05:11:31;100635.47;;;19.62;41.91
45074;BME280;31570;51.688;5.860;2023-03-17T05:13:58;100637.19;;;19.63;41.67
45074;BME280;31570;51.688;5.860;2023-03-17T05:16:24;100630.78;;;19.64;41.88
45074;BME280;31570;51.688;5.860;2023-03-17T05:18:51;100627.03;;;19.65;41.93
45074;BME280;31570;51.688;5.860;2023-03-17T05:21:17;100634.19;;;19.66;41.87
45074;BME280;31570;51.688;5.860;2023-03-17T05:23:44;100630.78;;;19.64;41.85
45074;BME280;31570;51.688;5.860;2023-03-17T05:26:10;100625.34;;;19.64;41.89
45074;BME280;31570;51.688;5.860;2023-03-17T05:28:37;100617.94;;;19.66;41.72
45074;BME280;31570;51.688;5.860;2023-03-17T05:31:03;100621.31;;;19.68;41.86
45074;BME280;31570;51.688;5.860;2023-03-17T05:33:30;100612.78;;;19.63;42.06
45074;BME280;31570;51.688;5.860;2023-03-17T05:35:57;100608.69;;;19.59;41.85
45074;BME280;31570;51.688;5.860;2023-03-17T05:38:23;100611.09;;;19.62;42.12
45074;BME280;31570;51.688;5.860;2023-03-17T05:40:50;100617.06;;;19.65;41.78
45074;BME280;31570;51.688;5.860;2023-03-17T05:43:18;100611.78;;;19.64;41.76
45074;BME280;31570;51.688;5.860;2023-03-17T05:45:44;100626.19;;;19.64;41.58
45074;BME280;31570;51.688;5.860;2023-03-17T05:48:12;100638.50;;;19.59;41.98
45074;BME280;31570;51.688;5.860;2023-03-17T05:50:39;100635.47;;;19.62;41.77
45074;BME280;31570;51.688;5.860;2023-03-17T05:53:07;100634.19;;;19.66;41.93
45074;BME280;31570;51.688;5.860;2023-03-17T05:55:33;100628.19;;;19.62;41.99
45074;BME280;31570;51.688;5.860;2023-03-17T05:58:00;100624.78;;;19.60;41.89
45074;BME280;31570;51.688;5.860;2023-03-17T06:00:31;100629.94;;;19.53;42.06
45074;BME280;31570;51.688;5.860;2023-03-17T06:02:58;100627.25;;;19.53;41.94
45074;BME280;31570;51.688;5.860;2023-03-17T06:05:25;100623.38;;;19.56;41.87
45074;BME280;31570;51.688;5.860;2023-03-17T06:07:51;100621.50;;;19.57;42.12
45074;BME280;31570;51.688;5.860;2023-03-17T06:10:22;100625.34;;;19.64;41.89
45074;BME280;31570;51.688;5.860;2023-03-17T06:12:49;100627.34;;;19.62;41.80
45074;BME280;31570;51.688;5.860;2023-03-17T06:15:16;100625.06;;;19.57;41.92
45074;BME280;31570;51.688;5.860;2023-03-17T06:17:43;100629.66;;;19.57;42.11
45074;BME280;31570;51.688;5.860;2023-03-17T06:20:10;100634.22;;;19.56;42.07
45074;BME280;31570;51.688;5.860;2023-03-17T06:22:37;100645.50;;;19.51;42.00
45074;BME280;31570;51.688;5.860;2023-03-17T06:25:17;100634.91;;;19.58;41.86
45074;BME280;31570;51.688;5.860;2023-03-17T06:27:44;100643.63;;;19.62;41.76
45074;BME280;31570;51.688;5.860;2023-03-17T06:30:10;100635.06;;;19.57;42.04
45074;BME280;31570;51.688;5.860;2023-03-17T06:32:37;100635.06;;;19.57;42.15
45074;BME280;31570;51.688;5.860;2023-03-17T06:35:04;100630.66;;;19.55;41.98
45074;BME280;31570;51.688;5.860;2023-03-17T06:37:31;100623.50;;;19.54;41.93
45074;BME280;31570;51.688;5.860;2023-03-17T06:39:58;100631.34;;;19.58;41.85
45074;BME280;31570;51.688;5.860;2023-03-17T06:42:26;100635.38;;;19.53;42.11
45074;BME280;31570;51.688;5.860;2023-03-17T06:44:53;100628.69;;;19.48;42.11
45074;BME280;31570;51.688;5.860;2023-03-17T06:47:20;100632.13;;;19.50;42.03
45074;BME280;31570;51.688;5.860;2023-03-17T06:49:51;100631.34;;;19.58;41.83
45074;BME280;31570;51.688;5.860;2023-03-17T06:52:17;100642.66;;;19.53;42.00
45074;BME280;31570;51.688;5.860;2023-03-17T06:54:44;100641.81;;;19.52;41.96
45074;BME280;31570;51.688;5.860;2023-03-17T06:57:10;100631.94;;;19.51;42.01
45074;BME280;31570;51.688;5.860;2023-03-17T06:59:37;100626.38;;;19.53;42.10
45074;BME280;31570;51.688;5.860;2023-03-17T07:02:04;100618.25;;;19.53;42.01
45074;BME280;31570;51.688;5.860;2023-03-17T07:04:31;100620.56;;;19.48;42.04
45074;BME280;31570;51.688;5.860;2023-03-17T07:06:57;100623.72;;;19.43;41.98
45074;BME280;31570;51.688;5.860;2023-03-17T07:09:24;100623.56;;;19.45;42.29
45074;BME280;31570;51.688;5.860;2023-03-17T07:11:51;100625.44;;;19.44;42.42
45074;BME280;31570;51.688;5.860;2023-03-17T07:14:18;100632.13;;;19.50;42.15
45074;BME280;31570;51.688;5.860;2023-03-17T07:16:45;100631.94;;;19.51;42.12
45074;BME280;31570;51.688;5.860;2023-03-17T07:19:13;100637.78;;;19.57;41.97
45074;BME280;31570;51.688;5.860;2023-03-17T07:21:40;100644.91;;;19.58;41.67
45074;BME280;31570;51.688;5.860;2023-03-17T07:24:07;100638.63;;;19.57;41.72
45074;BME280;31570;51.688;5.860;2023-03-17T07:26:33;100643.13;;;19.48;41.83
45074;BME280;31570;51.688;5.860;2023-03-17T07:29:00;100643.66;;;19.52;42.09
45074;BME280;31570;51.688;5.860;2023-03-17T07:31:27;100635.66;;;19.50;41.95
45074;BME280;31570;51.688;5.860;2023-03-17T07:33:53;100630.25;;;19.50;41.83
45074;BME280;31570;51.688;5.860;2023-03-17T07:36:22;100630.97;;;19.52;41.84
45074;BME280;31570;51.688;5.860;2023-03-17T07:38:49;100634.53;;;19.53;41.92
45074;BME280;31570;51.688;5.860;2023-03-17T07:41:15;100626.09;;;19.56;42.00
45074;BME280;31570;51.688;5.860;2023-03-17T07:43:42;100616.50;;;19.62;41.82
45074;BME280;31570;51.688;5.860;2023-03-17T07:46:08;100622.91;;;19.61;41.91
45074;BME280;31570;51.688;5.860;2023-03-17T07:48:35;100626.78;;;19.58;41.84
45074;BME280;31570;51.688;5.860;2023-03-17T07:51:10;100630.38;;;19.59;41.79
45074;BME280;31570;51.688;5.860;2023-03-17T07:53:38;100628.63;;;19.58;41.88
45074;BME280;31570;51.688;5.860;2023-03-17T07:56:05;100631.34;;;19.58;41.97
45074;BME280;31570;51.688;5.860;2023-03-17T07:58:32;100631.03;;;19.61;41.77
45074;BME280;31570;51.688;5.860;2023-03-17T08:00:59;100618.19;;;19.63;41.51
45074;BME280;31570;51.688;5.860;2023-03-17T08:03:25;100628.81;;;19.56;41.95
45074;BME280;31570;51.688;5.860;2023-03-17T08:05:53;100629.56;;;19.48;42.13
45074;BME280;31570;51.688;5.860;2023-03-17T08:08:24;100621.44;;;19.48;42.01
45074;BME280;31570;51.688;5.860;2023-03-17T08:10:56;100626.16;;;19.46;41.99
45074;BME280;31570;51.688;5.860;2023-03-17T08:13:23;100625.97;;;19.48;42.09
45074;BME280;31570;51.688;5.860;2023-03-17T08:15:51;100625.13;;;19.47;42.19
45074;BME280;31570;51.688;5.860;2023-03-17T08:18:17;100626.84;;;19.48;42.02
45074;BME280;31570;51.688;5.860;2023-03-17T08:20:44;100626.63;;;19.42;41.98
45074;BME280;31570;51.688;5.860;2023-03-17T08:23:10;100624.19;;;19.39;42.17
45074;BME280;31570;51.688;5.860;2023-03-17T08:25:38;100633.88;;;19.41;42.48
45074;BME280;31570;51.688;5.860;2023-03-17T08:28:05;100636.19;;;19.36;42.37
45074;BME280;31570;51.688;5.860;2023-03-17T08:30:31;100636.50;;;19.33;42.55
45074;BME280;31570;51.688;5.860;2023-03-17T08:32:59;100635.47;;;19.34;42.55
45074;BME280;31570;51.688;5.860;2023-03-17T08:35:26;100637.50;;;19.32;42.46
45074;BME280;31570;51.688;5.860;2023-03-17T08:37:52;100631.78;;;19.35;42.33
45074;BME280;31570;51.688;5.860;2023-03-17T08:40:21;100635.19;;;19.37;42.35
45074;BME280;31570;51.688;5.860;2023-03-17T08:42:48;100623.66;;;19.35;42.45
45074;BME280;31570;51.688;5.860;2023-03-17T08:45:15;100626.03;;;19.38;42.34
45074;BME280;31570;51.688;5.860;2023-03-17T08:47:44;100633.31;;;19.38;42.15
45074;BME280;31570;51.688;5.860;2023-03-17T08:50:19;100640.91;;;19.34;42.46
45074;BME280;31570;51.688;5.860;2023-03-17T08:52:47;100633.38;;;19.28;42.74
45074;BME280;31570;51.688;5.860;2023-03-17T08:55:15;100625.88;;;19.22;42.70
45074;BME280;31570;51.688;5.860;2023-03-17T08:57:42;100614.16;;;19.21;42.78
45074;BME280;31570;51.688;5.860;2023-03-17T09:00:12;100611.75;;;19.18;42.71
45074;BME280;31570;51.688;5.860;2023-03-17T09:02:41;100609.59;;;19.22;42.87
45074;BME280;31570;51.688;5.860;2023-03-17T09:05:11;100605.88;;;19.23;42.78
45074;BME280;31570;51.688;5.860;2023-03-17T09:07:40;100605.88;;;19.23;42.82
45074;BME280;31570;51.688;5.860;2023-03-17T09:10:07;100602.16;;;19.24;42.83
45074;BME280;31570;51.688;5.860;2023-03-17T09:12:34;100620.94;;;19.35;42.53
45074;BME280;31570;51.688;5.860;2023-03-17T09:15:01;100616.06;;;19.39;42.56
45074;BME280;31570;51.688;5.860;2023-03-17T09:17:28;100622.19;;;19.41;42.19
45074;BME280;31570;51.688;5.860;2023-03-17T09:19:54;100625.72;;;19.41;42.06
45074;BME280;31570;51.688;5.860;2023-03-17T09:22:21;100627.75;;;19.39;42.15
45074;BME280;31570;51.688;5.860;2023-03-17T09:24:47;100623.50;;;19.37;42.13
45074;BME280;31570;51.688;5.860;2023-03-17T09:27:14;100630.59;;;19.38;42.13
45074;BME280;31570;51.688;5.860;2023-03-17T09:29:41;100624.34;;;19.37;42.15
45074;BME280;31570;51.688;5.860;2023-03-17T09:32:07;100622.34;;;19.39;42.09
45074;BME280;31570;51.688;5.860;2023-03-17T09:34:34;100624.34;;;19.37;42.03
45074;BME280;31570;51.688;5.860;2023-03-17T09:37:01;100628.75;;;19.38;42.27
45074;BME280;31570;51.688;5.860;2023-03-17T09:39:27;100632.63;;;19.36;42.09
45074;BME280;31570;51.688;5.860;2023-03-17T09:42:00;100619.50;;;19.31;42.19
45074;BME280;31570;51.688;5.860;2023-03-17T09:47:07;100624.50;;;19.36;41.94
45074;BME280;31570;51.688;5.860;2023-03-17T09:49:51;100619.75;;;19.38;41.95
45074;BME280;31570;51.688;5.860;2023-03-17T09:52:26;100625.34;;;19.36;42.01
45074;BME280;31570;51.688;5.860;2023-03-17T09:54:54;100617.53;;;19.33;42.33
45074;BME280;31570;51.688;5.860;2023-03-17T09:57:31;100614.34;;;19.38;42.10
45074;BME280;31570;51.688;5.860;2023-03-17T10:00:04;100607.06;;;19.38;42.08
45074;BME280;31570;51.688;5.860;2023-03-17T10:02:34;100609.09;;;19.36;42.16
45074;BME280;31570;51.688;5.860;2023-03-17T10:08:01;100627.47;;;19.42;42.05
45074;BME280;31570;51.688;5.860;2023-03-17T10:13:22;100613.59;;;19.45;42.16
45074;BME280;31570;51.688;5.860;2023-03-17T10:16:06;100618.88;;;19.47;42.01
45074;BME280;31570;51.688;5.860;2023-03-17T10:18:42;100609.47;;;19.41;42.13
45074;BME280;31570;51.688;5.860;2023-03-17T10:21:12;100616.06;;;19.39;42.22
45074;BME280;31570;51.688;5.860;2023-03-17T10:23:41;100610.09;;;19.35;42.34
45074;BME280;31570;51.688;5.860;2023-03-17T10:26:33;100620.06;;;19.35;42.48
45074;BME280;31570;51.688;5.860;2023-03-17T10:29:01;100609.78;;;19.38;42.32
45074;BME280;31570;51.688;5.860;2023-03-17T10:31:32;100628.91;;;19.37;42.25
45074;BME280;31570;51.688;5.860;2023-03-17T10:36:41;100632.03;;;19.42;42.33
45074;BME280;31570;51.688;5.860;2023-03-17T10:39:13;100617.47;;;19.43;42.35
45074;BME280;31570;51.688;5.860;2023-03-17T10:41:55;100609.16;;;19.44;42.27
45074;BME280;31570;51.688;5.860;2023-03-17T10:44:39;100605.72;;;19.52;42.24
45074;BME280;31570;51.688;5.860;2023-03-17T10:49:45;100600.13;;;19.53;42.25
45074;BME280;31570;51.688;5.860;2023-03-17T10:52:20;100598.28;;;19.54;42.06
45074;BME280;31570;51.688;5.860;2023-03-17T10:54:48;100584.88;;;19.52;42.11
45074;BME280;31570;51.688;5.860;2023-03-17T10:57:18;100587.41;;;19.54;42.02
45074;BME280;31570;51.688;5.860;2023-03-17T10:59:53;100603.69;;;19.54;42.28
45074;BME280;31570;51.688;5.860;2023-03-17T11:02:26;100607.13;;;19.56;42.23
45074;BME280;31570;51.688;5.860;2023-03-17T11:05:16;100599.59;;;19.50;42.18
45074;BME280;31570;51.688;5.860;2023-03-17T11:07:44;100596.03;;;19.49;42.19
45074;BME280;31570;51.688;5.860;2023-03-17T11:10:22;100608.25;;;19.53;42.20
45074;BME280;31570;51.688;5.860;2023-03-17T11:13:00;100620.81;;;19.54;42.10
45074;BME280;31570;51.688;5.860;2023-03-17T11:15:42;100613.69;;;19.53;42.23
45074;BME280;31570;51.688;5.860;2023-03-17T11:18:27;100613.84;;;19.52;42.29
45074;BME280;31570;51.688;5.860;2023-03-17T11:21:03;100611.13;;;19.52;42.18
45074;BME280;31570;51.688;5.860;2023-03-17T11:26:26;100600.44;;;19.50;42.32
45074;BME280;31570;51.688;5.860;2023-03-17T11:31:51;100599.75;;;19.48;42.56
45074;BME280;31570;51.688;5.860;2023-03-17T11:34:56;100581.47;;;19.50;42.47
45074;BME280;31570;51.688;5.860;2023-03-17T11:40:35;100580.44;;;19.51;42.43
45074;BME280;31570;51.688;5.860;2023-03-17T11:46:28;100578.91;;;19.49;42.29
45074;BME280;31570;51.688;5.860;2023-03-17T11:49:20;100596.63;;;19.43;42.80
45074;BME280;31570;51.688;5.860;2023-03-17T11:52:09;100594.34;;;19.48;42.58
45074;BME280;31570;51.688;5.860;2023-03-17T11:54:54;100592.59;;;19.47;42.46
45074;BME280;31570;51.688;5.860;2023-03-17T11:57:33;100588.34;;;19.45;42.73
45074;BME280;31570;51.688;5.860;2023-03-17T12:00:22;100589.22;;;19.45;42.70
45074;BME280;31570;51.688;5.860;2023-03-17T12:03:04;100581.22;;;19.44;42.70
45074;BME280;31570;51.688;5.860;2023-03-17T12:05:34;100573.31;;;19.50;42.53
45074;BME280;31570;51.688;5.860;2023-03-17T12:08:22;100561.47;;;19.51;42.69
45074;BME280;31570;51.688;5.860;2023-03-17T12:10:56;100549.63;;;19.52;42.72
45074;BME280;31570;51.688;5.860;2023-03-17T12:13:29;100557.78;;;19.52;42.50
45074;BME280;31570;51.688;5.860;2023-03-17T12:16:04;100554.34;;;19.50;42.88
45074;BME280;31570;51.688;5.860;2023-03-17T12:18:39;100557.78;;;19.52;42.87
45074;BME280;31570;51.688;5.860;2023-03-17T12:21:20;100557.47;;;19.55;42.90
45074;BME280;31570;51.688;5.860;2023-03-17T12:26:37;100566.28;;;19.58;42.84
45074;BME280;31570;51.688;5.860;2023-03-17T12:29:16;100562.28;;;19.62;42.94
45074;BME280;31570;51.688;5.860;2023-03-17T12:31:51;100552.19;;;19.54;42.94
45074;BME280;31570;51.688;5.860;2023-03-17T12:36:53;100552.50;;;19.51;43.07
45074;BME280;31570;51.688;5.860;2023-03-17T12:39:23;100542.91;;;19.57;42.85
45074;BME280;31570;51.688;5.860;2023-03-17T12:42:17;100552.72;;;19.58;43.01
45074;BME280;31570;51.688;5.860;2023-03-17T12:45:13;100552.66;;;19.49;43.18
45074;BME280;31570;51.688;5.860;2023-03-17T12:48:05;100563.09;;;19.44;43.19
45074;BME280;31570;51.688;5.860;2023-03-17T12:53:35;100562.97;;;19.46;43.33
45074;BME280;31570;51.688;5.860;2023-03-17T12:56:19;100556.63;;;19.55;43.18
45074;BME280;31570;51.688;5.860;2023-03-17T12:58:49;100552.66;;;19.49;43.14
45074;BME280;31570;51.688;5.860;2023-03-17T13:01:32;100547.91;;;19.51;43.23
45074;BME280;31570;51.688;5.860;2023-03-17T13:06:42;100549.00;;;19.41;43.54
45074;BME280;31570;51.688;5.860;2023-03-17T13:11:59;100526.22;;;19.51;43.17
45074;BME280;31570;51.688;5.860;2023-03-17T13:14:44;100533.22;;;19.54;43.28
45074;BME280;31570;51.688;5.860;2023-03-17T13:20:08;100527.25;;;19.50;43.18
45074;BME280;31570;51.688;5.860;2023-03-17T13:49:14;100520.75;;;19.43;43.72
45074;BME280;31570;51.688;5.860;2023-03-17T13:51:42;100514.31;;;19.44;43.59
45074;BME280;31570;51.688;5.860;2023-03-17T13:56:58;100505.88;;;19.47;43.52
45074;BME280;31570;51.688;5.860;2023-03-17T13:59:53;100507.59;;;19.48;43.60
45074;BME280;31570;51.688;5.860;2023-03-17T14:02:23;100508.28;;;19.50;43.73
45074;BME280;31570;51.688;5.860;2023-03-17T14:04:54;100503.16;;;19.47;43.68
45074;BME280;31570;51.688;5.860;2023-03-17T14:07:24;100497.59;;;19.49;43.79
45074;BME280;31570;51.688;5.860;2023-03-17T14:09:58;100498.13;;;19.52;43.68
45074;BME280;31570;51.688;5.860;2023-03-17T14:12:48;100496.75;;;19.48;43.99
45074;BME280;31570;51.688;5.860;2023-03-17T14:15:26;100491.88;;;19.52;43.63
45074;BME280;31570;51.688;5.860;2023-03-17T14:18:02;100501.22;;;19.58;43.75
45074;BME280;31570;51.688;5.860;2023-03-17T14:20:29;100487.84;;;19.56;43.67
45074;BME280;31570;51.688;5.860;2023-03-17T14:23:01;100493.69;;;19.51;43.87